createdAt,value
2019-05-10T00:00:34.465Z,91.06
2019-05-10T00:03:20.727Z,90.74
2019-05-10T00:06:07.848Z,90.99
2019-05-10T00:08:44.637Z,90.60
2019-05-10T00:11:33.273Z,91.37
2019-05-10T00:14:33.378Z,91.84
2019-05-10T00:17:08.466Z,91.80
2019-05-10T00:19:37.306Z,91.65
2019-05-10T00:22:05.030Z,91.50
2019-05-10T00:24:33.319Z,91.21
2019-05-10T00:27:01.811Z,90.81
2019-05-10T00:29:30.047Z,90.64
2019-05-10T00:31:58.622Z,90.87
2019-05-10T00:34:27.353Z,91.32
2019-05-10T00:36:56.065Z,91.71
2019-05-10T00:39:24.737Z,91.43
2019-05-10T00:41:53.551Z,91.59
2019-05-10T00:44:22.313Z,91.87
2019-05-10T00:46:50.762Z,92.24
2019-05-10T00:49:18.939Z,93.03
2019-05-10T00:51:47.736Z,93.39
2019-05-10T00:54:15.713Z,93.86
2019-05-10T00:56:43.275Z,94.22
2019-05-10T00:59:11.148Z,93.95
2019-05-10T01:01:39.623Z,93.72
2019-05-10T01:04:08.417Z,93.94
2019-05-10T01:06:36.966Z,93.64
2019-05-10T01:09:06.463Z,94.12
2019-05-10T01:11:35.023Z,94.03
2019-05-10T01:14:03.798Z,94.53
2019-05-10T01:16:32.488Z,94.47
2019-05-10T01:19:00.881Z,94.62
2019-05-10T01:21:28.638Z,94.53
2019-05-10T01:23:56.863Z,94.66
2019-05-10T01:26:25.002Z,94.79
2019-05-10T01:28:52.574Z,94.58
2019-05-10T01:31:21.152Z,94.70
2019-05-10T01:33:49.032Z,94.79
2019-05-10T01:36:17.310Z,94.47
2019-05-10T01:38:45.188Z,94.68
2019-05-10T01:41:13.053Z,94.90
2019-05-10T01:43:41.702Z,94.95
2019-05-10T01:46:10.158Z,94.82
2019-05-10T01:48:38.390Z,94.76
2019-05-10T01:51:06.709Z,94.97
2019-05-10T01:53:35.262Z,95.06
2019-05-10T01:56:03.482Z,94.99
2019-05-10T01:58:31.828Z,94.30
2019-05-10T02:01:00.660Z,94.18
2019-05-10T02:03:29.396Z,94.78
2019-05-10T02:05:57.727Z,95.19
2019-05-10T02:08:25.583Z,95.21
2019-05-10T02:10:53.870Z,95.25
2019-05-10T02:13:22.096Z,94.99
2019-05-10T02:15:50.392Z,94.99
2019-05-10T02:18:18.842Z,94.90
2019-05-10T02:20:47.263Z,95.24
2019-05-10T02:23:15.986Z,95.46
2019-05-10T02:25:45.178Z,95.74
2019-05-10T02:28:13.866Z,95.59
2019-05-10T02:30:41.897Z,94.05
2019-05-10T02:33:10.071Z,93.39
2019-05-10T02:35:38.354Z,93.96
2019-05-10T02:38:05.920Z,93.41
2019-05-10T02:40:34.699Z,93.46
2019-05-10T02:43:02.983Z,92.89
2019-05-10T02:45:30.952Z,92.13
2019-05-10T02:47:59.527Z,92.14
2019-05-10T02:50:27.826Z,91.96
2019-05-10T02:52:56.205Z,92.28
2019-05-10T02:55:25.002Z,92.18
2019-05-10T02:57:54.988Z,91.85
2019-05-10T03:00:23.868Z,91.13
2019-05-10T03:02:52.755Z,90.96
2019-05-10T03:05:21.157Z,91.84
2019-05-10T03:07:52.250Z,91.81
2019-05-10T03:10:20.309Z,92.52
2019-05-10T03:12:49.938Z,93.08
2019-05-10T03:15:18.026Z,93.66
2019-05-10T03:17:47.051Z,94.15
2019-05-10T03:20:16.107Z,94.61
2019-05-10T03:22:44.810Z,94.84
2019-05-10T03:25:13.468Z,94.98
2019-05-10T03:27:41.816Z,94.54
2019-05-10T03:30:10.096Z,94.70
2019-05-10T03:32:38.108Z,94.82
2019-05-10T03:35:07.219Z,94.90
2019-05-10T03:37:35.732Z,95.10
2019-05-10T03:40:05.209Z,94.39
2019-05-10T03:42:33.278Z,93.86
2019-05-10T03:45:01.605Z,94.01
2019-05-10T03:47:29.955Z,94.58
2019-05-10T03:49:58.681Z,95.08
2019-05-10T03:52:27.155Z,95.18
2019-05-10T03:54:55.455Z,95.46
2019-05-10T03:57:23.753Z,95.62
2019-05-10T03:59:52.328Z,95.45
2019-05-10T04:02:20.704Z,95.47
2019-05-10T04:04:48.994Z,95.16
2019-05-10T04:07:17.386Z,94.31
2019-05-10T04:09:45.634Z,94.43
2019-05-10T04:12:14.239Z,94.62
2019-05-10T04:14:42.873Z,94.77
2019-05-10T04:17:11.217Z,94.98
2019-05-10T04:19:39.562Z,95.40
2019-05-10T04:22:08.177Z,95.70
2019-05-10T04:24:36.855Z,95.86
2019-05-10T04:27:05.270Z,95.75
2019-05-10T04:29:33.545Z,95.61
2019-05-10T04:32:01.709Z,95.57
2019-05-10T04:34:29.579Z,95.23
2019-05-10T04:36:57.816Z,94.79
2019-05-10T04:39:25.370Z,94.37
2019-05-10T04:41:53.942Z,94.40
2019-05-10T04:44:22.166Z,94.20
2019-05-10T04:46:50.754Z,94.53
2019-05-10T04:49:19.629Z,94.83
2019-05-10T04:51:47.875Z,94.56
2019-05-10T04:54:15.835Z,94.34
2019-05-10T04:56:44.201Z,93.97
2019-05-10T04:59:11.699Z,94.28
2019-05-10T05:01:40.273Z,94.52
2019-05-10T05:04:08.608Z,94.69
2019-05-10T05:06:37.109Z,94.98
2019-05-10T05:09:06.831Z,94.90
2019-05-10T05:11:34.388Z,94.97
2019-05-10T05:14:02.637Z,94.07
2019-05-10T05:16:31.209Z,94.39
2019-05-10T05:18:59.481Z,94.52
2019-05-10T05:21:28.046Z,94.80
2019-05-10T05:23:56.255Z,94.82
2019-05-10T05:26:24.852Z,94.53
2019-05-10T05:28:53.235Z,94.44
2019-05-10T05:31:21.206Z,94.71
2019-05-10T05:33:49.477Z,94.20
2019-05-10T05:36:17.792Z,93.80
2019-05-10T05:38:47.344Z,93.40
2019-05-10T05:41:15.869Z,92.90
2019-05-10T05:43:46.341Z,93.28
2019-05-10T05:46:14.771Z,92.72
2019-05-10T05:48:43.371Z,92.48
2019-05-10T05:51:12.079Z,92.94
2019-05-10T05:53:42.370Z,92.87
2019-05-10T05:56:14.222Z,92.30
2019-05-10T05:58:44.455Z,92.38
2019-05-10T06:01:10.888Z,92.49
2019-05-10T06:03:39.543Z,92.83
2019-05-10T06:06:15.481Z,93.22
2019-05-10T06:08:38.517Z,93.75
2019-05-10T06:11:09.163Z,93.31
2019-05-10T06:13:36.977Z,93.16
2019-05-10T06:16:06.719Z,92.82
2019-05-10T06:18:36.126Z,92.70
2019-05-10T06:21:04.553Z,93.52
2019-05-10T06:23:35.104Z,92.93
2019-05-10T06:26:03.284Z,92.49
2019-05-10T06:28:56.886Z,92.51
2019-05-10T06:31:01.567Z,91.67
2019-05-10T06:33:29.895Z,91.57
2019-05-10T06:35:58.186Z,91.99
2019-05-10T06:38:26.109Z,92.21
2019-05-10T06:40:54.567Z,91.30
2019-05-10T06:43:22.829Z,90.86
2019-05-10T06:45:52.296Z,91.53
2019-05-10T06:48:27.386Z,91.92
2019-05-10T06:50:51.923Z,92.01
2019-05-10T06:53:23.170Z,92.19
2019-05-10T06:55:51.067Z,92.62
2019-05-10T06:58:20.342Z,92.62
2019-05-10T07:00:48.939Z,92.11
2019-05-10T07:03:17.849Z,90.96
2019-05-10T07:05:45.711Z,90.91
2019-05-10T07:08:20.149Z,90.96
2019-05-10T07:10:44.769Z,89.64
2019-05-10T07:13:13.154Z,89.35
2019-05-10T07:15:42.639Z,89.97
2019-05-10T07:18:16.931Z,89.49
2019-05-10T07:20:43.271Z,88.42
2019-05-10T07:23:11.934Z,87.85
2019-05-10T07:25:43.731Z,89.32
2019-05-10T07:28:15.902Z,88.48
2019-05-10T07:30:41.783Z,86.84
2019-05-10T07:33:09.898Z,87.27
2019-05-10T07:35:38.801Z,85.80
2019-05-10T07:38:06.868Z,85.48
2019-05-10T07:40:34.838Z,85.00
2019-05-10T07:43:03.002Z,84.28
2019-05-10T07:45:31.352Z,84.22
2019-05-10T07:48:02.424Z,83.32
2019-05-10T07:50:30.328Z,83.14
2019-05-10T07:52:59.162Z,83.94
2019-05-10T07:55:29.819Z,83.75
2019-05-10T07:57:59.195Z,82.13
2019-05-10T08:00:27.933Z,82.00
2019-05-10T08:03:07.501Z,80.99
2019-05-10T08:05:29.201Z,80.78
2019-05-10T08:07:58.816Z,79.91
2019-05-10T08:10:28.972Z,82.12
2019-05-10T08:12:59.515Z,81.49
2019-05-10T08:15:30.513Z,82.04
2019-05-10T08:17:58.749Z,82.39
2019-05-10T08:20:41.414Z,83.76
2019-05-10T08:22:57.168Z,82.30
2019-05-10T08:25:29.094Z,84.18
2019-05-10T08:27:55.638Z,83.51
2019-05-10T08:30:42.701Z,83.67
2019-05-10T08:33:10.947Z,83.65
2019-05-10T08:35:39.240Z,83.00
2019-05-10T08:38:08.103Z,82.51
2019-05-10T08:40:37.972Z,83.22
2019-05-10T08:43:08.905Z,83.62
2019-05-10T08:45:38.915Z,84.16
2019-05-10T08:48:07.320Z,84.53
2019-05-10T08:50:49.737Z,82.78
2019-05-10T08:53:10.717Z,82.28
2019-05-10T08:55:35.873Z,82.46
2019-05-10T08:58:04.500Z,82.83
2019-05-10T09:00:45.643Z,81.13
2019-05-10T09:03:09.275Z,79.20
2019-05-10T09:05:34.091Z,78.50
2019-05-10T09:08:05.497Z,79.33
2019-05-10T09:10:32.569Z,80.62
2019-05-10T09:13:03.248Z,78.77
2019-05-10T09:15:33.040Z,76.92
2019-05-10T09:18:04.144Z,75.99
2019-05-10T09:20:32.020Z,76.74
2019-05-10T09:23:02.391Z,77.29
2019-05-10T09:25:31.572Z,75.57
2019-05-10T09:28:02.480Z,74.58
2019-05-10T09:30:35.360Z,72.69
2019-05-10T09:33:08.515Z,74.08
2019-05-10T09:35:32.981Z,74.33
2019-05-10T09:38:02.102Z,73.93
2019-05-10T09:40:32.651Z,71.61
2019-05-10T09:43:14.868Z,72.45
2019-05-10T09:45:43.309Z,72.99
2019-05-10T09:48:12.283Z,68.98
2019-05-10T09:50:46.301Z,72.29
2019-05-10T09:53:15.141Z,70.40
2019-05-10T09:55:45.434Z,72.17
2019-05-10T09:58:11.169Z,68.53
2019-05-10T10:00:39.140Z,66.10
2019-05-10T10:03:08.190Z,71.53
2019-05-10T10:05:39.814Z,71.25
2019-05-10T10:08:09.244Z,68.15
2019-05-10T10:10:37.301Z,66.92
2019-05-10T10:13:13.528Z,65.39
2019-05-10T10:15:37.286Z,63.76
2019-05-10T10:18:05.828Z,64.80
2019-05-10T10:20:36.042Z,64.35
2019-05-10T10:23:07.017Z,63.56
2019-05-10T10:25:40.390Z,65.28
2019-05-10T10:28:10.370Z,66.19
2019-05-10T10:30:37.375Z,66.65
2019-05-10T10:33:10.499Z,66.70
2019-05-10T10:35:37.829Z,65.85
2019-05-10T10:38:07.762Z,65.50
2019-05-10T10:40:44.201Z,66.93
2019-05-10T10:43:07.457Z,65.79
2019-05-10T10:45:37.678Z,63.94
2019-05-10T10:48:08.440Z,64.99
2019-05-10T10:50:36.526Z,69.18
2019-05-10T10:53:07.807Z,65.01
2019-05-10T10:55:37.790Z,64.91
2019-05-10T10:58:07.369Z,70.13
2019-05-10T11:00:38.995Z,66.46
2019-05-10T11:03:05.899Z,66.12
2019-05-10T11:05:34.302Z,66.14
2019-05-10T11:08:02.682Z,66.82
2019-05-10T11:10:31.452Z,65.97
2019-05-10T11:13:02.951Z,69.62
2019-05-10T11:15:35.989Z,70.34
2019-05-10T11:18:00.656Z,70.42
2019-05-10T11:20:31.510Z,72.32
2019-05-10T11:22:59.440Z,70.86
2019-05-10T11:25:27.302Z,74.11
2019-05-10T11:27:58.596Z,74.54
2019-05-10T11:30:25.688Z,79.22
2019-05-10T11:32:53.987Z,81.90
2019-05-10T11:35:30.228Z,84.45
2019-05-10T11:37:53.206Z,86.53
2019-05-10T11:40:30.560Z,81.67
2019-05-10T11:42:51.251Z,80.39
2019-05-10T11:45:20.902Z,79.88
2019-05-10T11:47:54.476Z,80.57
2019-05-10T11:50:28.881Z,75.36
2019-05-10T11:52:51.329Z,77.15
2019-05-10T11:58:01.536Z,73.80
2019-05-10T11:59:03.906Z,72.75
2019-05-10T12:00:28.534Z,71.87
2019-05-10T12:03:12.628Z,72.31
2019-05-10T12:05:26.310Z,74.41
2019-05-10T12:07:54.699Z,75.77
2019-05-10T12:10:25.682Z,79.79
2019-05-10T12:13:06.145Z,77.21
2019-05-10T12:17:58.862Z,73.75
2019-05-10T12:20:39.546Z,70.31
2019-05-10T12:22:54.181Z,70.55
2019-05-10T12:25:42.520Z,72.52
2019-05-10T12:26:06.530Z,72.86
2019-05-10T12:27:52.758Z,73.46
2019-05-10T12:30:21.656Z,73.98
2019-05-10T12:33:05.830Z,74.63
2019-05-10T12:35:21.399Z,75.74
2019-05-10T12:37:54.269Z,76.91
2019-05-10T12:40:23.831Z,76.23
2019-05-10T12:42:51.192Z,78.51
2019-05-10T12:45:22.897Z,75.01
2019-05-10T12:47:51.852Z,73.28
2019-05-10T12:50:21.367Z,71.32
2019-05-10T12:53:01.956Z,68.64
2019-05-10T12:55:19.500Z,68.89
2019-05-10T12:57:47.492Z,65.95
2019-05-10T13:00:16.320Z,70.28
2019-05-10T13:02:51.433Z,66.90
2019-05-10T13:05:16.058Z,64.16
2019-05-10T13:07:44.792Z,64.60
2019-05-10T13:10:13.286Z,64.54
2019-05-10T13:12:44.367Z,58.99
2019-05-10T13:15:11.843Z,59.43
2019-05-10T13:17:44.127Z,56.86
2019-05-10T13:20:10.943Z,60.37
2019-05-10T13:22:39.676Z,49.26
2019-05-10T13:25:08.410Z,51.43
2019-05-10T13:27:36.604Z,53.77
2019-05-10T13:30:05.142Z,51.52
2019-05-10T13:32:33.419Z,54.21
2019-05-10T13:35:01.784Z,52.82
2019-05-10T13:37:30.103Z,52.53
2019-05-10T13:40:05.051Z,48.49
2019-05-10T13:42:28.614Z,45.27
2019-05-10T13:44:57.418Z,46.97
2019-05-10T13:47:25.680Z,45.20
2019-05-10T13:49:53.868Z,42.35
2019-05-10T13:52:22.645Z,41.31
2019-05-10T13:54:50.220Z,41.51
2019-05-10T13:57:18.499Z,37.12
2019-05-10T13:59:48.807Z,36.81
2019-05-10T14:02:22.974Z,41.02
2019-05-10T14:04:47.030Z,37.08
2019-05-10T14:07:15.719Z,39.19
2019-05-10T14:09:44.244Z,37.15
2019-05-10T14:12:16.221Z,37.79
2019-05-10T14:14:42.673Z,41.43
2019-05-10T14:17:10.663Z,39.00
2019-05-10T14:19:39.345Z,43.87
2019-05-10T14:22:07.979Z,42.86
2019-05-10T14:24:36.230Z,43.53
2019-05-10T14:27:04.583Z,44.57
2019-05-10T14:29:36.445Z,44.31
2019-05-10T14:32:02.976Z,45.00
2019-05-10T14:34:31.268Z,41.55
2019-05-10T14:36:59.614Z,35.38
2019-05-10T14:39:27.608Z,39.71
2019-05-10T14:41:56.219Z,37.23
2019-05-10T14:44:25.034Z,36.58
2019-05-10T14:46:53.559Z,32.96
2019-05-10T14:49:21.808Z,32.53
2019-05-10T14:51:59.098Z,33.34
2019-05-10T14:54:22.915Z,40.19
2019-05-10T14:56:53.912Z,44.97
2019-05-10T14:59:21.514Z,46.83
2019-05-10T15:01:50.222Z,46.94
2019-05-10T15:04:43.847Z,46.94
2019-05-10T15:06:49.325Z,42.63
2019-05-10T15:09:21.740Z,41.11
2019-05-10T15:11:48.392Z,43.28
2019-05-10T15:14:16.851Z,40.27
2019-05-10T15:16:45.291Z,40.39
2019-05-10T15:19:14.235Z,38.61
2019-05-10T15:21:42.836Z,38.59
2019-05-10T15:24:10.734Z,38.13
2019-05-10T15:26:43.839Z,40.83
2019-05-10T15:29:15.202Z,45.24
2019-05-10T15:31:40.123Z,49.25
2019-05-10T15:34:08.930Z,51.64
2019-05-10T15:36:36.906Z,59.04
2019-05-10T15:39:06.583Z,59.84
2019-05-10T15:41:34.880Z,62.35
2019-05-10T15:44:03.838Z,65.55
2019-05-10T15:46:39.538Z,66.32
2019-05-10T15:49:01.988Z,65.88
2019-05-10T15:51:36.312Z,65.19
2019-05-10T15:54:04.966Z,65.52
2019-05-10T15:56:35.481Z,65.38
2019-05-10T15:59:02.376Z,65.14
2019-05-10T16:01:30.279Z,64.38
2019-05-10T16:03:58.187Z,64.72
2019-05-10T16:06:26.581Z,65.30
2019-05-10T16:08:54.865Z,63.20
2019-05-10T16:11:23.038Z,62.70
2019-05-10T16:13:54.825Z,60.61
2019-05-10T16:16:21.991Z,62.38
2019-05-10T16:18:50.374Z,61.34
2019-05-10T16:21:18.739Z,61.41
2019-05-10T16:23:48.358Z,62.40
2019-05-10T16:26:17.617Z,61.70
2019-05-10T16:28:46.586Z,61.55
2019-05-10T16:31:14.763Z,62.87
2019-05-10T16:33:42.733Z,63.34
2019-05-10T16:36:10.999Z,62.27
2019-05-10T16:38:38.954Z,62.66
2019-05-10T16:41:06.979Z,63.71
2019-05-10T16:43:35.769Z,62.51
2019-05-10T16:46:04.502Z,64.80
2019-05-10T16:48:32.738Z,62.82
2019-05-10T16:51:03.737Z,63.71
2019-05-10T16:53:31.534Z,66.52
2019-05-10T16:56:00.242Z,65.06
2019-05-10T16:58:28.134Z,63.47
2019-05-10T17:00:56.083Z,66.54
2019-05-10T17:03:24.448Z,66.08
2019-05-10T17:05:53.869Z,66.63
2019-05-10T17:08:22.704Z,65.46
2019-05-10T17:10:51.471Z,64.83
2019-05-10T17:13:20.261Z,64.90
2019-05-10T17:15:48.955Z,65.32
2019-05-10T17:18:20.315Z,68.62
2019-05-10T17:20:50.715Z,66.49
2019-05-10T17:23:20.137Z,67.52
2019-05-10T17:25:48.879Z,67.14
2019-05-10T17:28:18.210Z,68.17
2019-05-10T17:30:48.329Z,68.74
2019-05-10T17:33:18.275Z,69.70
2019-05-10T17:35:47.366Z,70.45
2019-05-10T17:38:16.378Z,70.94
2019-05-10T17:40:48.067Z,70.95
2019-05-10T17:43:20.919Z,70.83
2019-05-10T17:45:47.795Z,70.83
2019-05-10T17:48:16.214Z,72.06
2019-05-10T17:50:45.963Z,71.75
2019-05-10T17:53:15.997Z,72.65
2019-05-10T17:55:49.164Z,73.75
2019-05-10T17:58:17.245Z,74.03
2019-05-10T18:00:45.135Z,74.52
2019-05-10T18:03:14.194Z,74.14
2019-05-10T18:05:46.862Z,73.64
2019-05-10T18:08:15.504Z,73.66
2019-05-10T18:10:44.289Z,73.88
2019-05-10T18:13:12.651Z,74.12
2019-05-10T18:15:40.911Z,74.18
2019-05-10T18:18:09.299Z,74.04
2019-05-10T18:20:42.256Z,74.31
2019-05-10T18:23:07.637Z,74.98
2019-05-10T18:25:35.634Z,75.16
2019-05-10T18:28:03.967Z,75.17
2019-05-10T18:30:32.650Z,75.50
2019-05-10T18:33:01.140Z,76.14
2019-05-10T18:35:28.695Z,76.82
2019-05-10T18:37:59.518Z,77.26
2019-05-10T18:40:31.564Z,78.45
2019-05-10T18:43:03.147Z,79.60
2019-05-10T18:45:29.823Z,79.95
2019-05-10T18:47:58.043Z,80.59
2019-05-10T18:50:25.941Z,80.64
2019-05-10T18:52:54.521Z,80.70
2019-05-10T18:55:23.158Z,81.12
2019-05-10T18:57:52.616Z,81.64
2019-05-10T19:00:23.257Z,82.02
2019-05-10T19:02:55.098Z,82.56
2019-05-10T19:05:25.172Z,83.31
2019-05-10T19:08:03.077Z,83.53
2019-05-10T19:10:22.645Z,83.95
2019-05-10T19:12:59.504Z,84.11
2019-05-10T19:15:20.331Z,84.50
2019-05-10T19:17:49.072Z,84.55
2019-05-10T19:20:18.479Z,84.42
2019-05-10T19:22:46.941Z,85.00
2019-05-10T19:25:15.705Z,85.07
2019-05-10T19:27:49.975Z,85.09
2019-05-10T19:30:19.977Z,84.64
2019-05-10T19:32:51.197Z,84.59
2019-05-10T19:35:16.994Z,84.81
2019-05-10T19:37:45.711Z,84.83
2019-05-10T19:40:14.446Z,85.07
2019-05-10T19:42:44.943Z,85.04
2019-05-10T19:45:19.369Z,86.07
2019-05-10T19:47:50.003Z,85.81
2019-05-10T19:50:16.782Z,85.98
2019-05-10T19:52:45.804Z,86.29
2019-05-10T19:55:19.611Z,86.03
2019-05-10T19:57:49.430Z,86.53
2019-05-10T20:00:18.568Z,86.81
2019-05-10T20:02:47.065Z,85.98
2019-05-10T20:05:15.866Z,87.21
2019-05-10T20:07:46.198Z,87.35
2019-05-10T20:10:15.093Z,86.72
2019-05-10T20:12:43.750Z,86.52
2019-05-10T20:15:11.701Z,87.35
2019-05-10T20:17:39.278Z,87.70
2019-05-10T20:20:08.041Z,88.38
2019-05-10T20:22:36.753Z,88.59
2019-05-10T20:25:05.294Z,88.95
2019-05-10T20:27:33.878Z,88.87
2019-05-10T20:30:02.717Z,89.24
2019-05-10T20:32:31.603Z,88.97
2019-05-10T20:35:00.409Z,88.81
2019-05-10T20:37:29.605Z,88.81
2019-05-10T20:39:58.675Z,88.79
2019-05-10T20:42:27.848Z,88.51
2019-05-10T20:45:06.850Z,88.60
2019-05-10T20:47:28.777Z,88.62
2019-05-10T20:49:57.975Z,88.66
2019-05-10T20:52:26.594Z,88.64
2019-05-10T20:54:55.493Z,89.00
2019-05-10T20:57:24.154Z,88.99
2019-05-10T20:59:53.265Z,88.83
2019-05-10T21:02:23.785Z,87.94
2019-05-10T21:04:52.074Z,87.24
2019-05-10T21:07:20.699Z,88.21
2019-05-10T21:09:49.435Z,88.71
2019-05-10T21:12:17.881Z,88.47
2019-05-10T21:14:45.934Z,88.47
2019-05-10T21:17:14.800Z,88.68
2019-05-10T21:19:43.634Z,88.64
2019-05-10T21:22:11.629Z,88.43
2019-05-10T21:24:39.188Z,88.84
2019-05-10T21:27:07.565Z,88.75
2019-05-10T21:29:36.374Z,88.20
2019-05-10T21:32:04.927Z,87.82
2019-05-10T21:34:33.723Z,87.95
2019-05-10T21:37:01.934Z,88.08
2019-05-10T21:39:30.309Z,87.72
2019-05-10T21:41:58.559Z,87.92
2019-05-10T21:44:27.179Z,89.15
2019-05-10T21:46:55.997Z,89.21
2019-05-10T21:49:24.781Z,89.69
2019-05-10T21:51:53.500Z,89.74
2019-05-10T21:54:21.440Z,88.77
2019-05-10T21:56:49.829Z,89.08
2019-05-10T21:59:18.616Z,90.14
2019-05-10T22:01:46.764Z,90.17
2019-05-10T22:04:15.604Z,90.40
2019-05-10T22:06:44.153Z,90.82
2019-05-10T22:09:12.870Z,90.88
2019-05-10T22:11:40.871Z,89.98
2019-05-10T22:14:09.604Z,89.74
2019-05-10T22:16:38.188Z,89.67
2019-05-10T22:19:05.913Z,89.34
2019-05-10T22:21:33.765Z,89.31
2019-05-10T22:24:02.090Z,89.74
2019-05-10T22:26:30.455Z,90.63
2019-05-10T22:28:59.075Z,91.21
2019-05-10T22:31:27.814Z,91.58
2019-05-10T22:33:55.699Z,91.85
2019-05-10T22:36:23.970Z,92.11
2019-05-10T22:39:05.783Z,92.45
2019-05-10T22:41:21.199Z,92.53
2019-05-10T22:43:49.035Z,91.73
2019-05-10T22:46:16.594Z,91.39
2019-05-10T22:48:44.795Z,91.04
2019-05-10T22:51:12.970Z,91.30
2019-05-10T22:53:41.222Z,91.96
2019-05-10T22:56:09.064Z,92.10
2019-05-10T22:58:37.315Z,92.31
2019-05-10T23:01:05.447Z,92.33
2019-05-10T23:03:33.859Z,92.68
2019-05-10T23:06:02.219Z,92.78
2019-05-10T23:08:30.619Z,92.92
2019-05-10T23:10:59.207Z,93.25
2019-05-10T23:13:28.100Z,93.08
2019-05-10T23:15:56.380Z,92.80
2019-05-10T23:18:25.080Z,93.27
2019-05-10T23:20:53.354Z,93.55
2019-05-10T23:23:21.629Z,93.83
2019-05-10T23:25:49.505Z,94.13
2019-05-10T23:28:18.048Z,94.41
2019-05-10T23:30:46.395Z,94.57
2019-05-10T23:33:14.660Z,94.80
2019-05-10T23:35:42.564Z,94.94
2019-05-10T23:38:10.518Z,95.07
2019-05-10T23:40:39.110Z,95.06
2019-05-10T23:43:07.678Z,94.90
2019-05-10T23:45:36.416Z,94.54
2019-05-10T23:48:05.170Z,93.78
2019-05-10T23:50:33.380Z,93.59
2019-05-10T23:53:00.939Z,93.77
2019-05-10T23:55:29.364Z,93.61
2019-05-10T23:57:57.288Z,93.49
